Time;durP1;ratioP1;P1;durP2;ratioP2;P2;SDS_P1;SDS_P2;PMS_P1;PMS_P2;Temp;Humidity;BMP_temperature;BMP_pressure;BME280_temperature;BME280_humidity;BME280_pressure;Samples;Min_cycle;Max_cycle;Signal;HPM_P1;HPM_P2
2022/03/07 00:00:08;;;;;;;;;;;;;;;22.14;35.29;94804.41;2002498;29;1504;-76
2022/03/07 00:01:09;;;;;;;;;;;;;;;22.15;35.38;94811.38;2002757;29;1907;-77
2022/03/07 00:02:12;;;;;;;;;;;;;;;22.16;35.38;94810.31;1995026;29;1513;-77
2022/03/07 00:03:14;;;;;;;;;;;;;;;22.16;35.25;94812.16;1987648;29;1510;-78
2022/03/07 00:04:17;;;;;;;;;;;;;;;22.15;35.54;94813.22;1987938;29;1360;-77
2022/03/07 00:05:19;;;;;;;;;;;;;;;22.11;35.71;94807.47;1984482;29;1547;-78
2022/03/07 00:06:20;;;;;;;;;;;;;;;22.14;35.56;94807.06;1987915;29;1505;-78
2022/03/07 00:07:22;;;;;;;;;;;;;;;22.16;35.64;94813.00;1988479;29;1022;-78
2022/03/07 00:08:24;;;;;;;;;;;;;;;22.14;35.60;94817.75;1996049;29;1544;-77
2022/03/07 00:09:39;;;;;;;;;;;;;;;22.15;35.51;94813.22;2000006;29;1568;-77
2022/03/07 00:10:41;;;;;;;;;;;;;;;22.09;35.88;94814.91;2001089;29;1626;-78
2022/03/07 00:11:43;;;;;;;;;;;;;;;22.09;35.57;94814.09;1988394;29;1588;-79
2022/03/07 00:12:45;;;;;;;;;;;;;;;22.10;35.70;94816.53;1995368;29;982;-77
2022/03/07 00:13:47;;;;;;;;;;;;;;;22.14;35.75;94814.25;2003090;29;1540;-78
2022/03/07 00:14:48;;;;;;;;;;;;;;;22.14;35.82;94808.91;1995374;29;1619;-77
2022/03/07 00:15:50;;;;;;;;;;;;;;;22.08;36.10;94821.28;1999419;29;1602;-77
2022/03/07 00:16:52;;;;;;;;;;;;;;;22.08;36.00;94813.25;1996101;29;1636;-78
2022/03/07 00:17:54;;;;;;;;;;;;;;;22.14;35.97;94811.56;1987827;29;1522;-78
2022/03/07 00:18:57;;;;;;;;;;;;;;;22.18;35.84;94808.28;1997548;29;1533;-78
2022/03/07 00:20:03;;;;;;;;;;;;;;;22.27;35.66;94810.66;1988943;29;1660;-78
2022/03/07 00:21:05;;;;;;;;;;;;;;;22.26;35.68;94809.03;1989406;29;1931;-79
2022/03/07 00:22:07;;;;;;;;;;;;;;;22.28;35.71;94812.28;1989911;29;1648;-78
2022/03/07 00:23:11;;;;;;;;;;;;;;;22.35;35.75;94813.06;1996430;29;1062;-77
2022/03/07 00:24:13;;;;;;;;;;;;;;;22.33;36.03;94809.78;1996589;29;1635;-78
2022/03/07 00:25:16;;;;;;;;;;;;;;;22.25;35.98;94808.22;1989152;29;1514;-78
2022/03/07 00:26:18;;;;;;;;;;;;;;;22.31;35.91;94807.31;1988691;29;1640;-77
2022/03/07 00:27:20;;;;;;;;;;;;;;;22.27;36.07;94805.31;1986673;29;1129;-78
2022/03/07 00:28:21;;;;;;;;;;;;;;;22.22;36.17;94804.13;1981395;29;1593;-78
2022/03/07 00:29:23;;;;;;;;;;;;;;;22.27;36.08;94805.31;1982247;29;1507;-77
2022/03/07 00:30:24;;;;;;;;;;;;;;;22.20;36.21;94803.53;1988712;29;1640;-78
2022/03/07 00:31:26;;;;;;;;;;;;;;;22.22;36.43;94801.44;1988921;29;1570;-79
2022/03/07 00:32:29;;;;;;;;;;;;;;;22.22;36.33;94793.44;1997414;29;1567;-78
2022/03/07 00:33:31;;;;;;;;;;;;;;;22.26;36.39;94801.03;1988794;29;1569;-78
2022/03/07 00:34:32;;;;;;;;;;;;;;;22.26;36.14;94803.69;1989934;29;1653;-78
2022/03/07 00:35:34;;;;;;;;;;;;;;;22.32;36.16;94806.28;1988585;29;1684;-78
2022/03/07 00:36:36;;;;;;;;;;;;;;;22.28;36.36;94807.75;1988799;29;1541;-78
2022/03/07 00:37:40;;;;;;;;;;;;;;;22.33;36.24;94801.75;1989722;29;1494;-79
2022/03/07 00:38:42;;;;;;;;;;;;;;;22.32;36.41;94805.50;2001811;29;1172;-79
2022/03/07 00:39:44;;;;;;;;;;;;;;;22.29;36.36;94798.72;2004223;29;1508;-78
2022/03/07 00:40:46;;;;;;;;;;;;;;;22.30;36.33;94803.03;2004211;29;978;-78
2022/03/07 00:41:47;;;;;;;;;;;;;;;22.26;36.60;94798.34;1995835;29;2014;-78
2022/03/07 00:42:49;;;;;;;;;;;;;;;22.30;36.48;94799.53;1989236;29;1533;-78
2022/03/07 00:43:51;;;;;;;;;;;;;;;22.35;36.33;94797.03;1989261;29;1018;-78
2022/03/07 00:44:52;;;;;;;;;;;;;;;22.32;36.25;94795.59;1989568;29;1526;-77
2022/03/07 00:45:54;;;;;;;;;;;;;;;22.28;36.78;94793.59;1988911;29;1549;-78
2022/03/07 00:46:56;;;;;;;;;;;;;;;22.30;36.60;94791.53;1988829;29;1553;-78
2022/03/07 00:47:57;;;;;;;;;;;;;;;22.31;36.42;94788.59;1989779;29;1549;-78
2022/03/07 00:48:59;;;;;;;;;;;;;;;22.27;36.52;94790.09;1985742;29;1155;-79
2022/03/07 00:50:02;;;;;;;;;;;;;;;22.26;36.67;94782.31;1988846;29;1514;-78
2022/03/07 00:51:03;;;;;;;;;;;;;;;22.29;36.85;94790.72;1989024;29;1571;-78
2022/03/07 00:52:05;;;;;;;;;;;;;;;22.29;36.83;94782.69;1988463;29;1659;-79
2022/03/07 00:53:07;;;;;;;;;;;;;;;22.34;36.46;94784.69;1989817;29;1546;-78
2022/03/07 00:54:10;;;;;;;;;;;;;;;22.35;36.62;94789.00;1989028;29;1556;-79
2022/03/07 00:55:12;;;;;;;;;;;;;;;22.34;36.47;94790.03;1989652;29;1513;-79
2022/03/07 00:56:14;;;;;;;;;;;;;;;22.21;36.80;94781.13;1988918;29;1673;-78
2022/03/07 00:57:15;;;;;;;;;;;;;;;22.27;36.95;94789.28;1988853;29;1517;-78
2022/03/07 00:58:17;;;;;;;;;;;;;;;22.17;36.96;94774.59;1989875;29;1502;-77
2022/03/07 00:59:19;;;;;;;;;;;;;;;22.10;37.28;94781.81;1996141;29;1675;-78
2022/03/07 01:00:21;;;;;;;;;;;;;;;22.12;37.12;94777.06;1986042;29;1482;-79
2022/03/07 01:01:22;;;;;;;;;;;;;;;22.10;37.31;94781.81;1988525;29;1907;-77
2022/03/07 01:02:25;;;;;;;;;;;;;;;22.12;37.30;94776.25;1996592;29;1761;-78
2022/03/07 01:03:27;;;;;;;;;;;;;;;22.11;37.30;94769.25;1997523;29;1498;-77
2022/03/07 01:04:28;;;;;;;;;;;;;;;22.09;37.28;94771.38;1996404;29;1470;-78
2022/03/07 01:05:31;;;;;;;;;;;;;;;22.13;37.15;94772.53;1989325;29;1507;-79
2022/03/07 01:06:32;;;;;;;;;;;;;;;22.13;37.49;94768.00;1988655;29;1518;-80
2022/03/07 01:07:34;;;;;;;;;;;;;;;22.09;37.88;94766.03;1981548;29;1096;-77
2022/03/07 01:08:36;;;;;;;;;;;;;;;22.08;37.48;94767.03;1982571;29;1213;-79
2022/03/07 01:09:38;;;;;;;;;;;;;;;22.11;37.56;94770.06;1988538;29;1757;-79
2022/03/07 01:10:40;;;;;;;;;;;;;;;22.18;37.09;94768.19;1994696;29;1504;-77
2022/03/07 01:11:41;;;;;;;;;;;;;;;22.16;37.23;94762.22;1995715;29;1619;-77
2022/03/07 01:12:44;;;;;;;;;;;;;;;22.19;37.55;94761.81;1997152;29;1603;-77
2022/03/07 01:13:45;;;;;;;;;;;;;;;22.12;37.63;94761.03;1998093;29;1675;-78
2022/03/07 01:14:49;;;;;;;;;;;;;;;22.09;37.65;94766.03;1989427;29;1664;-78
2022/03/07 01:15:51;;;;;;;;;;;;;;;22.09;37.67;94761.50;1990705;29;1631;-80
2022/03/07 01:16:53;;;;;;;;;;;;;;;22.12;37.68;94768.25;1989132;29;1541;-78
2022/03/07 01:17:56;;;;;;;;;;;;;;;22.15;37.94;94757.94;1982389;29;1216;-78
2022/03/07 01:18:58;;;;;;;;;;;;;;;22.23;37.72;94767.56;1990185;29;1608;-80
2022/03/07 01:19:59;;;;;;;;;;;;;;;22.17;37.96;94769.25;1991956;29;1533;-79
2022/03/07 01:21:02;;;;;;;;;;;;;;;22.19;38.04;94764.47;1991070;29;1521;-79
2022/03/07 01:22:03;;;;;;;;;;;;;;;22.26;37.48;94766.28;1986279;29;1896;-79
2022/03/07 01:23:05;;;;;;;;;;;;;;;22.29;37.63;94766.66;1989282;29;1092;-79
2022/03/07 01:24:07;;;;;;;;;;;;;;;22.35;37.56;94762.28;1989514;29;1494;-78
2022/03/07 01:25:09;;;;;;;;;;;;;;;22.26;37.67;94766.28;1989072;29;1624;-79
2022/03/07 01:26:11;;;;;;;;;;;;;;;22.20;37.99;94768.00;1982392;29;994;-78
2022/03/07 01:27:13;;;;;;;;;;;;;;;22.18;37.94;94770.06;1981129;29;1556;-78
2022/03/07 01:28:15;;;;;;;;;;;;;;;22.17;38.01;94774.59;1988575;29;1648;-78
2022/03/07 01:29:16;;;;;;;;;;;;;;;22.16;37.89;94772.09;1981444;29;1661;-78
2022/03/07 01:30:18;;;;;;;;;;;;;;;22.18;37.75;94778.88;1988672;29;1415;-78
2022/03/07 01:31:20;;;;;;;;;;;;;;;22.14;37.90;94772.34;1990175;29;1484;-78
2022/03/07 01:32:22;;;;;;;;;;;;;;;22.12;38.13;94774.41;1996696;29;1591;-79
2022/03/07 01:33:24;;;;;;;;;;;;;;;22.15;38.01;94781.97;1993580;29;1556;-79
2022/03/07 01:34:26;;;;;;;;;;;;;;;22.16;38.03;94772.91;1989800;29;1561;-78
2022/03/07 01:35:28;;;;;;;;;;;;;;;22.12;38.12;94771.72;1990059;29;1660;-79
2022/03/07 01:36:29;;;;;;;;;;;;;;;22.15;38.17;94770.47;1996690;29;1617;-78
2022/03/07 01:37:31;;;;;;;;;;;;;;;22.12;38.10;94769.06;1988697;29;1786;-78
2022/03/07 01:38:33;;;;;;;;;;;;;;;22.13;37.98;94762.66;1982041;29;1986;-79
2022/03/07 01:39:34;;;;;;;;;;;;;;;22.12;38.30;94760.22;1981496;29;1739;-78
2022/03/07 01:40:36;;;;;;;;;;;;;;;22.13;37.96;94757.31;1988867;29;1524;-79
2022/03/07 01:41:38;;;;;;;;;;;;;;;22.14;38.03;94764.31;1989214;29;1915;-78
2022/03/07 01:42:39;;;;;;;;;;;;;;;22.13;38.28;94768.00;1988361;29;1528;-79
2022/03/07 01:43:42;;;;;;;;;;;;;;;22.12;38.41;94769.06;1986527;29;1655;-78
2022/03/07 01:44:43;;;;;;;;;;;;;;;22.10;38.11;94764.97;1995833;29;1676;-79
2022/03/07 01:45:45;;;;;;;;;;;;;;;22.12;38.26;94766.38;1988764;29;1643;-78
2022/03/07 01:46:47;;;;;;;;;;;;;;;22.10;38.43;94765.78;1989881;29;1597;-78
2022/03/07 01:47:49;;;;;;;;;;;;;;;22.10;38.19;94771.13;1995529;29;1552;-79
2022/03/07 01:48:51;;;;;;;;;;;;;;;22.03;38.46;94759.69;1988592;29;1672;-79
2022/03/07 01:49:53;;;;;;;;;;;;;;;22.07;38.46;94760.88;1981829;29;1569;-78
2022/03/07 01:50:54;;;;;;;;;;;;;;;22.05;38.49;94762.94;1988236;29;1720;-79
2022/03/07 01:51:56;;;;;;;;;;;;;;;22.06;38.21;94759.25;1989167;29;1604;-79
2022/03/07 01:52:58;;;;;;;;;;;;;;;22.07;38.29;94763.56;1988687;29;1134;-79
2022/03/07 01:54:03;;;;;;;;;;;;;;;22.08;38.23;94759.03;1981467;29;1651;-79
2022/03/07 01:55:05;;;;;;;;;;;;;;;22.10;38.44;94751.63;1986570;29;1677;-78
2022/03/07 01:56:07;;;;;;;;;;;;;;;22.10;38.17;94755.09;1981395;30;1682;-79
2022/03/07 01:57:12;;;;;;;;;;;;;;;22.12;38.50;94763.72;1982718;29;1632;-79
2022/03/07 01:58:13;;;;;;;;;;;;;;;22.10;38.38;94757.78;1988515;29;1728;-79
2022/03/07 01:59:16;;;;;;;;;;;;;;;22.09;38.61;94756.16;1981405;29;1525;-78
2022/03/07 02:00:20;;;;;;;;;;;;;;;22.07;38.81;94760.88;1988714;29;1521;-79
2022/03/07 02:01:21;;;;;;;;;;;;;;;22.11;38.46;94759.38;1988499;29;1484;-78
2022/03/07 02:02:24;;;;;;;;;;;;;;;22.18;38.53;94754.03;1982209;29;1987;-81
2022/03/07 02:03:26;;;;;;;;;;;;;;;22.28;38.43;94764.19;1988203;29;1579;-77
2022/03/07 02:04:28;;;;;;;;;;;;;;;22.22;37.95;94761.38;1980497;29;1736;-78
2022/03/07 02:05:30;;;;;;;;;;;;;;;22.34;37.78;94757.94;1988809;29;1548;-78
2022/03/07 02:06:32;;;;;;;;;;;;;;;22.27;38.13;94765.25;1984723;29;1493;-78
2022/03/07 02:07:33;;;;;;;;;;;;;;;22.20;38.42;94762.66;1981449;29;1747;-78
2022/03/07 02:08:35;;;;;;;;;;;;;;;22.16;38.39;94761.41;1980768;29;1680;-77
2022/03/07 02:09:37;;;;;;;;;;;;;;;22.18;38.08;94754.84;1988622;29;811;-78
2022/03/07 02:10:39;;;;;;;;;;;;;;;22.17;38.16;94753.22;1995717;29;1602;-78
2022/03/07 02:11:40;;;;;;;;;;;;;;;22.14;38.21;94755.47;1988596;29;1789;-78
2022/03/07 02:12:42;;;;;;;;;;;;;;;22.17;38.13;94757.69;1996060;29;1552;-78
2022/03/07 02:13:44;;;;;;;;;;;;;;;22.13;38.68;94754.66;1988317;29;1603;-78
2022/03/07 02:14:45;;;;;;;;;;;;;;;22.13;38.20;94754.66;1988044;29;1545;-79
2022/03/07 02:15:54;;;;;;;;;;;;;;;22.10;38.41;94757.78;1988353;29;1578;-78
2022/03/07 02:16:56;;;;;;;;;;;;;;;22.13;38.49;94754.66;1985826;29;1545;-78
2022/03/07 02:17:57;;;;;;;;;;;;;;;22.14;38.29;94752.78;1995790;29;1652;-78
2022/03/07 02:18:59;;;;;;;;;;;;;;;22.16;38.03;94756.88;1987645;29;1383;-78
2022/03/07 02:20:01;;;;;;;;;;;;;;;22.15;38.15;94755.25;1988634;29;971;-77
2022/03/07 02:21:07;;;;;;;;;;;;;;;22.15;38.25;94760.59;1988569;29;1431;-78
2022/03/07 02:22:10;;;;;;;;;;;;;;;22.17;38.25;94755.03;1985299;29;1915;-78
2022/03/07 02:23:12;;;;;;;;;;;;;;;22.19;38.28;94763.66;1995985;29;1710;-78
2022/03/07 02:24:14;;;;;;;;;;;;;;;22.17;38.13;94753.22;1988075;29;1537;-78
2022/03/07 02:25:16;;;;;;;;;;;;;;;22.18;38.12;94754.84;1988517;29;1631;-78
2022/03/07 02:26:18;;;;;;;;;;;;;;;22.23;38.09;94759.53;1988348;29;1054;-78
2022/03/07 02:27:20;;;;;;;;;;;;;;;22.26;38.04;94761.75;1988216;29;1502;-78
2022/03/07 02:28:21;;;;;;;;;;;;;;;22.22;38.02;94755.22;1985166;29;1518;-78
2022/03/07 02:29:23;;;;;;;;;;;;;;;22.17;37.96;94757.69;1988099;29;1533;-78
2022/03/07 02:30:25;;;;;;;;;;;;;;;22.21;38.17;94754.41;1988406;29;1549;-78
2022/03/07 02:31:29;;;;;;;;;;;;;;;22.20;37.99;94758.13;1988147;29;1566;-78
2022/03/07 02:32:31;;;;;;;;;;;;;;;22.18;38.23;94764.72;1988863;29;997;-78
2022/03/07 02:33:34;;;;;;;;;;;;;;;22.19;38.17;94752.97;1988658;29;1565;-78
2022/03/07 02:34:35;;;;;;;;;;;;;;;22.13;38.13;94757.31;1988105;29;1682;-78
2022/03/07 02:35:37;;;;;;;;;;;;;;;22.27;38.13;94757.22;1981101;29;1497;-80
2022/03/07 02:36:39;;;;;;;;;;;;;;;22.16;38.29;94756.88;1981721;29;1451;-81
2022/03/07 02:37:41;;;;;;;;;;;;;;;22.17;38.08;94763.91;1988208;29;1629;-80
2022/03/07 02:38:43;;;;;;;;;;;;;;;22.15;38.20;94757.13;1994839;29;1517;-78
2022/03/07 02:39:44;;;;;;;;;;;;;;;22.21;38.26;94758.94;1986110;29;1582;-81
2022/03/07 02:41:07;;;;;;;;;;;;;;;22.22;38.08;94750.66;1989060;29;1743;-80
2022/03/07 02:42:08;;;;;;;;;;;;;;;22.22;38.10;94753.34;1988759;29;1992;-81
2022/03/07 02:43:10;;;;;;;;;;;;;;;22.18;38.24;94754.84;1988175;29;1566;-81
2022/03/07 02:44:12;;;;;;;;;;;;;;;22.14;38.38;94758.97;1989105;29;1518;-80
2022/03/07 02:45:13;;;;;;;;;;;;;;;22.13;38.21;94751.97;1980835;29;1510;-81
2022/03/07 02:46:18;;;;;;;;;;;;;;;22.11;38.18;94754.03;1982294;29;1575;-82
2022/03/07 02:47:20;;;;;;;;;;;;;;;22.26;38.19;94758.28;1988170;29;1563;-82
2022/03/07 02:48:21;;;;;;;;;;;;;;;22.29;38.07;94755.97;1987853;29;1526;-81
2022/03/07 02:49:23;;;;;;;;;;;;;;;22.30;38.08;94759.44;1989037;29;1561;-81
2022/03/07 02:50:24;;;;;;;;;;;;;;;22.20;38.00;94763.47;1977240;29;1534;-82
2022/03/07 02:51:26;;;;;;;;;;;;;;;22.23;38.16;94767.56;1989354;29;1501;-81
2022/03/07 02:52:28;;;;;;;;;;;;;;;22.21;38.03;94765.09;1988341;29;1623;-82
2022/03/07 02:53:30;;;;;;;;;;;;;;;22.15;38.15;94757.13;1987863;29;1524;-81
2022/03/07 02:54:31;;;;;;;;;;;;;;;22.20;38.15;94763.47;1989519;29;1791;-82
2022/03/07 02:55:33;;;;;;;;;;;;;;;22.16;38.03;94762.22;1987823;29;1658;-83
2022/03/07 02:56:35;;;;;;;;;;;;;;;22.16;37.98;94759.56;1981724;29;1021;-80
2022/03/07 02:57:37;;;;;;;;;;;;;;;22.14;38.04;94763.47;1981121;29;975;-82
2022/03/07 02:58:39;;;;;;;;;;;;;;;22.10;38.44;94757.78;1988142;29;1536;-82
2022/03/07 02:59:41;;;;;;;;;;;;;;;22.13;38.33;94765.34;1989555;29;1600;-81
2022/03/07 03:00:43;;;;;;;;;;;;;;;22.14;38.42;94756.31;1987332;29;1620;-80
2022/03/07 03:01:45;;;;;;;;;;;;;;;22.11;38.14;94754.03;1986840;29;1473;-81
2022/03/07 03:02:47;;;;;;;;;;;;;;;22.13;38.30;94757.31;1995379;29;1986;-82
2022/03/07 03:03:49;;;;;;;;;;;;;;;22.13;38.46;94751.97;1987671;29;1513;-84
2022/03/07 03:04:51;;;;;;;;;;;;;;;22.13;38.21;94757.31;1989300;29;979;-81
2022/03/07 03:05:55;;;;;;;;;;;;;;;22.11;38.17;94755.91;1987858;29;1551;-81
2022/03/07 03:06:59;;;;;;;;;;;;;;;22.10;38.32;94763.13;1996697;29;1303;-81
2022/03/07 03:08:01;;;;;;;;;;;;;;;22.08;38.66;94762.50;1987920;29;1771;-82
2022/03/07 03:09:04;;;;;;;;;;;;;;;22.09;38.30;94756.16;1987959;29;1162;-81
2022/03/07 03:10:05;;;;;;;;;;;;;;;22.20;38.50;94763.47;1989423;29;1561;-82
2022/03/07 03:11:07;;;;;;;;;;;;;;;22.11;38.46;94762.06;1987213;29;1731;-83
2022/03/07 03:12:10;;;;;;;;;;;;;;;22.18;38.33;94768.19;1978670;29;1542;-82
2022/03/07 03:13:12;;;;;;;;;;;;;;;22.26;38.43;94760.94;1988003;29;1620;-81
2022/03/07 03:14:14;;;;;;;;;;;;;;;22.29;38.17;94768.53;1988226;29;1470;-79
2022/03/07 03:15:15;;;;;;;;;;;;;;;22.17;38.32;94765.69;1982065;29;1533;-80
2022/03/07 03:16:17;;;;;;;;;;;;;;;22.07;38.82;94760.88;1980644;29;1758;-80
2022/03/07 03:17:19;;;;;;;;;;;;;;;22.12;38.46;94766.38;1988810;29;1324;-81
2022/03/07 03:18:22;;;;;;;;;;;;;;;22.07;38.64;94763.56;1994972;29;1670;-82
2022/03/07 03:19:26;;;;;;;;;;;;;;;22.02;38.78;94763.41;1994038;29;1710;-81
2022/03/07 03:20:28;;;;;;;;;;;;;;;22.12;38.49;94758.38;1988498;29;1511;-77
2022/03/07 03:21:29;;;;;;;;;;;;;;;22.11;38.59;94769.25;1987956;29;1569;-77
2022/03/07 03:22:32;;;;;;;;;;;;;;;22.09;38.85;94764.16;1994845;29;1940;-78
2022/03/07 03:23:33;;;;;;;;;;;;;;;22.08;38.91;94769.72;1982043;29;1513;-78
2022/03/07 03:24:35;;;;;;;;;;;;;;;22.06;38.89;94764.59;1980271;29;1719;-78
2022/03/07 03:25:37;;;;;;;;;;;;;;;22.07;38.71;94768.91;1988911;29;1515;-79
2022/03/07 03:26:39;;;;;;;;;;;;;;;22.05;38.96;94767.47;1987784;29;1142;-79
2022/03/07 03:27:41;;;;;;;;;;;;;;;22.04;38.85;94774.69;1980853;29;1684;-78
2022/03/07 03:28:43;;;;;;;;;;;;;;;22.02;39.07;94766.88;1987865;29;1522;-79
2022/03/07 03:29:44;;;;;;;;;;;;;;;21.95;38.85;94766.13;1980438;29;1709;-83
2022/03/07 03:30:46;;;;;;;;;;;;;;;22.08;38.51;94769.72;1987945;29;1590;-78
2022/03/07 03:31:48;;;;;;;;;;;;;;;22.00;38.89;94766.31;1987441;29;1521;-77
2022/03/07 03:32:50;;;;;;;;;;;;;;;21.99;39.10;94766.50;1980459;29;1094;-78
2022/03/07 03:33:53;;;;;;;;;;;;;;;22.04;39.03;94773.88;1978164;29;1541;-78
2022/03/07 03:34:55;;;;;;;;;;;;;;;22.07;38.70;94773.44;1979913;29;1660;-78
2022/03/07 03:35:56;;;;;;;;;;;;;;;22.02;38.74;94766.06;1981131;29;1490;-78
2022/03/07 03:36:58;;;;;;;;;;;;;;;21.98;39.02;94767.56;1980416;29;1533;-78
2022/03/07 03:38:00;;;;;;;;;;;;;;;21.97;38.93;94764.06;1995720;29;1516;-78
2022/03/07 03:39:02;;;;;;;;;;;;;;;21.97;38.93;94773.91;1995202;29;1576;-78
2022/03/07 03:40:08;;;;;;;;;;;;;;;21.98;38.85;94770.22;1987566;29;1498;-78
2022/03/07 03:41:10;;;;;;;;;;;;;;;21.99;38.87;94764.66;1981264;29;1551;-78
2022/03/07 03:42:11;;;;;;;;;;;;;;;22.01;39.11;94769.78;1980473;29;1539;-79
2022/03/07 03:43:13;;;;;;;;;;;;;;;21.98;39.00;94763.03;1988090;29;1912;-78
2022/03/07 03:44:15;;;;;;;;;;;;;;;22.01;38.92;94764.44;1987948;29;1631;-78
2022/03/07 03:45:17;;;;;;;;;;;;;;;22.00;38.88;94765.50;1991403;29;1673;-78
2022/03/07 03:46:18;;;;;;;;;;;;;;;22.02;38.86;94766.06;1988325;29;1513;-78
2022/03/07 03:47:20;;;;;;;;;;;;;;;22.00;38.80;94765.50;1987918;29;1523;-78
2022/03/07 03:48:22;;;;;;;;;;;;;;;21.97;38.94;94765.91;1987934;29;1553;-78
2022/03/07 03:49:24;;;;;;;;;;;;;;;21.98;39.03;94770.22;1987718;29;1658;-78
2022/03/07 03:50:25;;;;;;;;;;;;;;;22.00;39.08;94768.16;1980420;29;1521;-79
2022/03/07 03:51:27;;;;;;;;;;;;;;;22.01;38.89;94769.78;1980768;29;1563;-79
2022/03/07 03:52:29;;;;;;;;;;;;;;;21.99;39.00;94764.66;1980340;29;1094;-78
2022/03/07 03:53:30;;;;;;;;;;;;;;;22.07;38.70;94771.56;1981156;29;1509;-80
2022/03/07 03:54:32;;;;;;;;;;;;;;;22.16;38.59;94772.91;1988049;29;1647;-80
2022/03/07 03:55:36;;;;;;;;;;;;;;;22.15;38.54;94768.63;1988007;29;1565;-80
2022/03/07 03:56:40;;;;;;;;;;;;;;;22.17;38.74;94769.25;1985593;29;1541;-80
2022/03/07 03:57:42;;;;;;;;;;;;;;;22.13;38.75;94770.69;1980623;29;1672;-80
2022/03/07 03:58:44;;;;;;;;;;;;;;;22.13;38.67;94770.69;1981759;29;1624;-80
2022/03/07 03:59:45;;;;;;;;;;;;;;;22.07;38.88;94768.91;1987385;29;1498;-81
2022/03/07 04:00:47;;;;;;;;;;;;;;;22.07;38.97;94771.56;1987894;29;995;-80
2022/03/07 04:01:49;;;;;;;;;;;;;;;22.11;38.55;94769.25;1995504;29;1644;-80
2022/03/07 04:02:51;;;;;;;;;;;;;;;21.86;34.25;94772.81;1987636;29;1903;-79
2022/03/07 04:03:53;;;;;;;;;;;;;;;18.21;32.45;94760.84;1988354;29;1490;-80
2022/03/07 04:04:54;;;;;;;;;;;;;;;15.86;35.67;94773.78;1988232;29;1022;-83
2022/03/07 04:05:56;;;;;;;;;;;;;;;14.58;37.52;94769.19;1987559;29;1550;-80
2022/03/07 04:06:58;;;;;;;;;;;;;;;13.99;38.95;94771.38;1985594;29;1642;-80
2022/03/07 04:08:03;;;;;;;;;;;;;;;13.45;39.21;94776.47;1987681;29;1013;-77
2022/03/07 04:09:11;;;;;;;;;;;;;;;13.16;39.94;94774.31;1988333;29;1502;-80
2022/03/07 04:10:14;;;;;;;;;;;;;;;13.00;39.75;94772.50;1981647;29;1383;-78
2022/03/07 04:11:16;;;;;;;;;;;;;;;12.67;40.95;94772.47;1980931;29;1529;-79
2022/03/07 04:12:18;;;;;;;;;;;;;;;12.62;40.76;94779.19;1981218;29;1501;-79
2022/03/07 04:13:20;;;;;;;;;;;;;;;12.45;40.41;94771.25;1980376;29;1653;-79
2022/03/07 04:14:22;;;;;;;;;;;;;;;12.34;40.96;94782.09;1988331;29;1699;-80
2022/03/07 04:15:27;;;;;;;;;;;;;;;12.29;40.58;94779.91;1987887;29;1701;-81
2022/03/07 04:16:29;;;;;;;;;;;;;;;12.17;40.01;94778.56;1987721;29;1671;-80
2022/03/07 04:17:31;;;;;;;;;;;;;;;12.04;40.38;94781.66;1980252;29;1652;-79
2022/03/07 04:18:32;;;;;;;;;;;;;;;11.82;40.90;94777.72;1991967;29;1682;-79
2022/03/07 04:19:34;;;;;;;;;;;;;;;11.86;40.40;94784.34;1996102;29;1140;-80
2022/03/07 04:20:36;;;;;;;;;;;;;;;11.50;41.13;94778.38;1987714;29;1524;-79
2022/03/07 04:21:41;;;;;;;;;;;;;;;11.62;41.11;94781.56;1995246;29;1513;-79
2022/03/07 04:22:43;;;;;;;;;;;;;;;11.66;40.67;94785.53;1988718;29;1560;-81
2022/03/07 04:23:45;;;;;;;;;;;;;;;11.51;40.61;94785.28;1994944;29;2374;-81
2022/03/07 04:24:47;;;;;;;;;;;;;;;11.36;41.06;94782.38;1988616;29;1571;-80
2022/03/07 04:25:48;;;;;;;;;;;;;;;11.35;41.28;94785.97;1980486;29;1513;-80
2022/03/07 04:26:50;;;;;;;;;;;;;;;11.29;41.05;94786.59;1980087;29;1691;-80
2022/03/07 04:27:52;;;;;;;;;;;;;;;11.11;41.55;94789.25;1981366;29;1714;-80
2022/03/07 04:28:54;;;;;;;;;;;;;;;11.17;41.97;94780.75;1986653;29;824;-79
2022/03/07 04:29:57;;;;;;;;;;;;;;;11.21;41.54;94781.28;1979918;29;1676;-79
2022/03/07 04:30:59;;;;;;;;;;;;;;;11.16;41.13;94781.75;1980489;29;1769;-80
2022/03/07 04:32:00;;;;;;;;;;;;;;;11.09;41.13;94778.06;1980178;29;1613;-79
2022/03/07 04:33:02;;;;;;;;;;;;;;;11.10;40.95;94778.88;1995879;29;1679;-81
2022/03/07 04:34:04;;;;;;;;;;;;;;;11.08;41.10;94780.88;2002336;29;1780;-82
2022/03/07 04:35:07;;;;;;;;;;;;;;;11.05;41.05;94778.53;1988468;29;1660;-80
2022/03/07 04:36:12;;;;;;;;;;;;;;;11.08;40.88;94780.88;1987499;29;1636;-80
2022/03/07 04:37:13;;;;;;;;;;;;;;;10.93;41.39;94784.03;1988103;29;1035;-81
2022/03/07 04:38:15;;;;;;;;;;;;;;;10.91;40.96;94788.59;1988379;29;1078;-81
2022/03/07 04:39:17;;;;;;;;;;;;;;;10.94;41.09;94784.84;1980337;29;1568;-81
2022/03/07 04:40:18;;;;;;;;;;;;;;;10.85;41.17;94794.44;1977375;29;1568;-79
2022/03/07 04:41:20;;;;;;;;;;;;;;;10.83;41.61;94792.94;1987431;29;1695;-80
2022/03/07 04:42:22;;;;;;;;;;;;;;;10.83;41.80;94785.06;1980416;29;1718;-80
2022/03/07 04:43:24;;;;;;;;;;;;;;;10.99;41.90;94796.53;1995635;29;2002;-79
2022/03/07 04:44:25;;;;;;;;;;;;;;;10.88;41.50;94783.66;1994752;29;1497;-81
2022/03/07 04:45:27;;;;;;;;;;;;;;;10.61;41.81;94786.34;1988105;29;1661;-82
2022/03/07 04:46:29;;;;;;;;;;;;;;;10.86;42.55;94782.16;1987614;29;1545;-83
2022/03/07 04:47:33;;;;;;;;;;;;;;;11.30;40.55;94785.63;1987530;29;1240;-83
2022/03/07 04:48:35;;;;;;;;;;;;;;;12.26;40.06;94785.50;1981127;29;1652;-77
2022/03/07 04:49:40;;;;;;;;;;;;;;;11.80;39.02;94789.38;1987609;29;1086;-84
2022/03/07 04:50:41;;;;;;;;;;;;;;;12.40;39.57;94778.81;1988306;29;1611;-77
2022/03/07 04:51:45;;;;;;;;;;;;;;;13.65;37.77;94783.00;1976473;29;1541;-77
2022/03/07 04:52:47;;;;;;;;;;;;;;;14.70;36.15;94782.00;1980327;29;1503;-78
2022/03/07 04:53:48;;;;;;;;;;;;;;;15.48;34.77;94781.75;1988462;29;1490;-78
2022/03/07 04:54:50;;;;;;;;;;;;;;;16.14;33.88;94786.41;1987157;29;1510;-78
2022/03/07 04:55:52;;;;;;;;;;;;;;;16.78;33.90;94781.28;1987616;29;1217;-74
2022/03/07 04:56:54;;;;;;;;;;;;;;;17.21;33.31;94783.16;1987182;29;1103;-76
2022/03/07 04:57:56;;;;;;;;;;;;;;;17.59;34.40;94786.34;1980059;29;1609;-78
2022/03/07 04:58:57;;;;;;;;;;;;;;;17.87;34.51;94788.19;1980028;29;1716;-76
2022/03/07 04:59:59;;;;;;;;;;;;;;;17.95;34.62;94788.88;1980066;29;1545;-79
2022/03/07 05:01:01;;;;;;;;;;;;;;;18.23;34.68;94784.56;1987741;29;1540;-80
2022/03/07 05:02:03;;;;;;;;;;;;;;;18.40;34.23;94784.03;1984170;29;1502;-76
2022/03/07 05:03:06;;;;;;;;;;;;;;;18.59;34.36;94789.63;1988446;29;1375;-76
2022/03/07 05:04:08;;;;;;;;;;;;;;;18.73;34.19;94785.19;1981906;29;1987;-77
2022/03/07 05:05:09;;;;;;;;;;;;;;;18.82;34.19;94779.53;1981302;29;1505;-75
2022/03/07 05:06:11;;;;;;;;;;;;;;;18.69;32.42;94787.41;1989072;29;1557;-74
2022/03/07 05:07:13;;;;;;;;;;;;;;;17.92;34.37;94781.28;1986677;29;1536;-76
2022/03/07 05:08:14;;;;;;;;;;;;;;;18.11;35.49;94787.75;1989164;29;1121;-76
2022/03/07 05:09:16;;;;;;;;;;;;;;;18.37;35.46;94786.25;1989844;29;1349;-76
2022/03/07 05:10:18;;;;;;;;;;;;;;;18.50;35.28;94783.69;1990138;29;1527;-76
2022/03/07 05:11:19;;;;;;;;;;;;;;;18.59;34.92;94785.13;1988827;29;1046;-76
2022/03/07 05:12:21;;;;;;;;;;;;;;;18.68;34.85;94783.13;1988530;29;1002;-76
2022/03/07 05:13:23;;;;;;;;;;;;;;;18.73;34.57;94788.66;1984556;29;1667;-76
2022/03/07 05:14:24;;;;;;;;;;;;;;;18.79;34.50;94789.75;1988517;29;1521;-76
2022/03/07 05:15:26;;;;;;;;;;;;;;;18.83;34.43;94789.13;1988261;29;1549;-76
2022/03/07 05:16:28;;;;;;;;;;;;;;;18.86;34.25;94785.25;1989070;29;1094;-76
2022/03/07 05:17:30;;;;;;;;;;;;;;;18.91;34.36;94780.16;1986466;29;1634;-76
2022/03/07 05:18:31;;;;;;;;;;;;;;;18.96;34.14;94783.03;1980317;29;1654;-76
2022/03/07 05:19:33;;;;;;;;;;;;;;;19.00;34.04;94781.59;1988614;29;1031;-77
2022/03/07 05:20:35;;;;;;;;;;;;;;;19.03;33.92;94777.72;1988306;29;1577;-76
2022/03/07 05:21:56;;;;;;;;;;;;;;;19.08;33.91;94777.94;1985204;29;1458;-76
2022/03/07 05:22:58;;;;;;;;;;;;;;;19.09;33.87;94777.72;1989662;29;1561;-77
2022/03/07 05:24:00;;;;;;;;;;;;;;;19.13;33.96;94780.03;1992417;29;1907;-76
2022/03/07 05:25:03;;;;;;;;;;;;;;;19.14;33.99;94786.97;1992253;29;1584;-77
2022/03/07 05:26:04;;;;;;;;;;;;;;;19.18;33.77;94782.88;1996333;29;1049;-77
2022/03/07 05:27:06;;;;;;;;;;;;;;;19.20;33.90;94784.31;1996140;29;1811;-78
2022/03/07 05:28:08;;;;;;;;;;;;;;;19.22;33.69;94776.97;1996188;29;1011;-76